sensor_id;sensor_type;location;lat;lon;timestamp;P1;durP1;ratioP1;P2;durP2;ratioP2
11086;SDS011;5597;47.588;9.642;2023-08-01T00:02:17;3.10;;;2.80;;
11086;SDS011;5597;47.588;9.642;2023-08-01T00:04:43;3.50;;;3.20;;
11086;SDS011;5597;47.588;9.642;2023-08-01T00:07:08;3.50;;;2.97;;
11086;SDS011;5597;47.588;9.642;2023-08-01T00:09:34;3.50;;;2.93;;
11086;SDS011;5597;47.588;9.642;2023-08-01T00:11:59;3.30;;;3.00;;
11086;SDS011;5597;47.588;9.642;2023-08-01T00:14:25;3.50;;;3.20;;
11086;SDS011;5597;47.588;9.642;2023-08-01T00:16:51;3.30;;;3.00;;
11086;SDS011;5597;47.588;9.642;2023-08-01T00:19:16;3.40;;;3.03;;
11086;SDS011;5597;47.588;9.642;2023-08-01T00:21:42;3.27;;;2.90;;
11086;SDS011;5597;47.588;9.642;2023-08-01T00:24:08;4.23;;;3.47;;
11086;SDS011;5597;47.588;9.642;2023-08-01T00:26:33;3.40;;;3.10;;
11086;SDS011;5597;47.588;9.642;2023-08-01T00:28:59;3.30;;;3.00;;
11086;SDS011;5597;47.588;9.642;2023-08-01T00:31:25;3.60;;;3.00;;
11086;SDS011;5597;47.588;9.642;2023-08-01T00:33:50;3.50;;;3.20;;
11086;SDS011;5597;47.588;9.642;2023-08-01T00:36:16;3.37;;;3.07;;
11086;SDS011;5597;47.588;9.642;2023-08-01T00:38:41;3.97;;;3.40;;
11086;SDS011;5597;47.588;9.642;2023-08-01T00:41:08;3.30;;;3.00;;
11086;SDS011;5597;47.588;9.642;2023-08-01T00:43:34;3.00;;;2.70;;
11086;SDS011;5597;47.588;9.642;2023-08-01T00:46:00;3.23;;;2.93;;
11086;SDS011;5597;47.588;9.642;2023-08-01T00:48:29;3.43;;;3.10;;
11086;SDS011;5597;47.588;9.642;2023-08-01T00:50:55;3.50;;;3.17;;
11086;SDS011;5597;47.588;9.642;2023-08-01T00:53:25;4.17;;;3.50;;
11086;SDS011;5597;47.588;9.642;2023-08-01T00:55:52;3.40;;;3.10;;
11086;SDS011;5597;47.588;9.642;2023-08-01T00:58:19;4.07;;;3.40;;
11086;SDS011;5597;47.588;9.642;2023-08-01T01:00:45;3.80;;;3.43;;
11086;SDS011;5597;47.588;9.642;2023-08-01T01:03:11;3.60;;;3.30;;
11086;SDS011;5597;47.588;9.642;2023-08-01T01:05:38;3.90;;;3.40;;
11086;SDS011;5597;47.588;9.642;2023-08-01T01:08:07;3.33;;;3.03;;
11086;SDS011;5597;47.588;9.642;2023-08-01T01:10:33;3.20;;;2.90;;
11086;SDS011;5597;47.588;9.642;2023-08-01T01:12:59;3.67;;;3.20;;
11086;SDS011;5597;47.588;9.642;2023-08-01T01:15:24;4.37;;;3.37;;
11086;SDS011;5597;47.588;9.642;2023-08-01T01:17:50;3.57;;;3.27;;
11086;SDS011;5597;47.588;9.642;2023-08-01T01:20:23;3.60;;;3.27;;
11086;SDS011;5597;47.588;9.642;2023-08-01T01:22:49;3.10;;;2.90;;
11086;SDS011;5597;47.588;9.642;2023-08-01T01:25:17;3.87;;;2.83;;
11086;SDS011;5597;47.588;9.642;2023-08-01T01:27:44;4.63;;;2.90;;
11086;SDS011;5597;47.588;9.642;2023-08-01T01:30:11;3.67;;;3.03;;
11086;SDS011;5597;47.588;9.642;2023-08-01T01:32:37;4.87;;;3.13;;
11086;SDS011;5597;47.588;9.642;2023-08-01T01:35:04;4.17;;;2.90;;
11086;SDS011;5597;47.588;9.642;2023-08-01T01:37:30;3.50;;;3.20;;
11086;SDS011;5597;47.588;9.642;2023-08-01T01:39:55;3.07;;;2.73;;
11086;SDS011;5597;47.588;9.642;2023-08-01T01:42:21;4.63;;;3.27;;
11086;SDS011;5597;47.588;9.642;2023-08-01T01:44:46;3.17;;;2.87;;
11086;SDS011;5597;47.588;9.642;2023-08-01T01:47:12;3.53;;;3.07;;
11086;SDS011;5597;47.588;9.642;2023-08-01T01:49:38;3.63;;;2.70;;
11086;SDS011;5597;47.588;9.642;2023-08-01T01:52:03;2.90;;;2.60;;
11086;SDS011;5597;47.588;9.642;2023-08-01T01:54:29;3.57;;;3.00;;
11086;SDS011;5597;47.588;9.642;2023-08-01T01:56:55;3.20;;;2.90;;
11086;SDS011;5597;47.588;9.642;2023-08-01T01:59:20;2.93;;;2.70;;
11086;SDS011;5597;47.588;9.642;2023-08-01T02:01:46;2.97;;;2.70;;
11086;SDS011;5597;47.588;9.642;2023-08-01T02:04:11;3.70;;;3.27;;
11086;SDS011;5597;47.588;9.642;2023-08-01T02:06:37;2.87;;;2.63;;
11086;SDS011;5597;47.588;9.642;2023-08-01T02:09:02;3.27;;;2.80;;
11086;SDS011;5597;47.588;9.642;2023-08-01T02:11:29;3.30;;;3.00;;
11086;SDS011;5597;47.588;9.642;2023-08-01T02:13:55;3.40;;;3.00;;
11086;SDS011;5597;47.588;9.642;2023-08-01T02:16:20;3.53;;;2.87;;
11086;SDS011;5597;47.588;9.642;2023-08-01T02:18:46;2.97;;;2.47;;
11086;SDS011;5597;47.588;9.642;2023-08-01T02:21:11;2.80;;;2.60;;
11086;SDS011;5597;47.588;9.642;2023-08-01T02:23:37;3.03;;;2.73;;
11086;SDS011;5597;47.588;9.642;2023-08-01T02:26:03;2.77;;;2.23;;
11086;SDS011;5597;47.588;9.642;2023-08-01T02:28:28;2.87;;;2.57;;
11086;SDS011;5597;47.588;9.642;2023-08-01T02:30:54;3.60;;;2.70;;
11086;SDS011;5597;47.588;9.642;2023-08-01T02:33:20;2.60;;;2.40;;
11086;SDS011;5597;47.588;9.642;2023-08-01T02:35:46;2.93;;;2.50;;
11086;SDS011;5597;47.588;9.642;2023-08-01T02:38:11;3.50;;;3.00;;
11086;SDS011;5597;47.588;9.642;2023-08-01T02:40:37;4.07;;;2.77;;
11086;SDS011;5597;47.588;9.642;2023-08-01T02:43:03;3.77;;;3.20;;
11086;SDS011;5597;47.588;9.642;2023-08-01T02:45:28;3.47;;;3.17;;
11086;SDS011;5597;47.588;9.642;2023-08-01T02:47:54;2.80;;;2.60;;
11086;SDS011;5597;47.588;9.642;2023-08-01T02:50:19;3.30;;;3.00;;
11086;SDS011;5597;47.588;9.642;2023-08-01T02:52:45;3.20;;;2.90;;
11086;SDS011;5597;47.588;9.642;2023-08-01T02:55:10;3.20;;;2.60;;
11086;SDS011;5597;47.588;9.642;2023-08-01T02:57:36;3.47;;;3.10;;
11086;SDS011;5597;47.588;9.642;2023-08-01T03:00:02;3.60;;;2.87;;
11086;SDS011;5597;47.588;9.642;2023-08-01T03:02:30;3.83;;;3.00;;
11086;SDS011;5597;47.588;9.642;2023-08-01T03:04:56;2.93;;;2.67;;
11086;SDS011;5597;47.588;9.642;2023-08-01T03:07:22;3.43;;;3.13;;
11086;SDS011;5597;47.588;9.642;2023-08-01T03:09:48;3.70;;;2.73;;
11086;SDS011;5597;47.588;9.642;2023-08-01T03:12:13;3.90;;;3.30;;
11086;SDS011;5597;47.588;9.642;2023-08-01T03:14:39;2.60;;;2.40;;
11086;SDS011;5597;47.588;9.642;2023-08-01T03:17:06;3.57;;;3.10;;
11086;SDS011;5597;47.588;9.642;2023-08-01T03:19:33;2.70;;;2.50;;
11086;SDS011;5597;47.588;9.642;2023-08-01T03:21:58;3.73;;;2.73;;
11086;SDS011;5597;47.588;9.642;2023-08-01T03:24:25;4.33;;;3.40;;
11086;SDS011;5597;47.588;9.642;2023-08-01T03:26:50;3.40;;;2.83;;
11086;SDS011;5597;47.588;9.642;2023-08-01T03:29:16;2.93;;;2.70;;
11086;SDS011;5597;47.588;9.642;2023-08-01T03:31:41;3.23;;;2.90;;
11086;SDS011;5597;47.588;9.642;2023-08-01T03:34:07;3.63;;;2.50;;
11086;SDS011;5597;47.588;9.642;2023-08-01T03:36:34;3.90;;;2.90;;
11086;SDS011;5597;47.588;9.642;2023-08-01T03:38:59;4.33;;;3.10;;
11086;SDS011;5597;47.588;9.642;2023-08-01T03:41:25;3.27;;;2.70;;
11086;SDS011;5597;47.588;9.642;2023-08-01T03:43:51;4.83;;;3.07;;
11086;SDS011;5597;47.588;9.642;2023-08-01T03:46:16;3.10;;;2.80;;
11086;SDS011;5597;47.588;9.642;2023-08-01T03:48:42;3.30;;;2.90;;
11086;SDS011;5597;47.588;9.642;2023-08-01T03:51:08;3.10;;;2.90;;
11086;SDS011;5597;47.588;9.642;2023-08-01T03:53:33;2.73;;;2.53;;
11086;SDS011;5597;47.588;9.642;2023-08-01T03:55:59;3.53;;;2.90;;
11086;SDS011;5597;47.588;9.642;2023-08-01T03:58:25;3.17;;;2.90;;
11086;SDS011;5597;47.588;9.642;2023-08-01T04:00:50;2.90;;;2.70;;
11086;SDS011;5597;47.588;9.642;2023-08-01T04:03:16;2.70;;;2.50;;
11086;SDS011;5597;47.588;9.642;2023-08-01T04:05:42;2.87;;;2.67;;
11086;SDS011;5597;47.588;9.642;2023-08-01T04:08:07;2.70;;;2.50;;
11086;SDS011;5597;47.588;9.642;2023-08-01T04:10:33;3.00;;;2.70;;
11086;SDS011;5597;47.588;9.642;2023-08-01T04:12:59;3.53;;;2.83;;
11086;SDS011;5597;47.588;9.642;2023-08-01T04:15:24;3.50;;;3.13;;
11086;SDS011;5597;47.588;9.642;2023-08-01T04:17:50;3.60;;;3.20;;
11086;SDS011;5597;47.588;9.642;2023-08-01T04:20:15;3.37;;;3.07;;
11086;SDS011;5597;47.588;9.642;2023-08-01T04:22:41;3.27;;;2.97;;
11086;SDS011;5597;47.588;9.642;2023-08-01T04:25:07;3.50;;;3.20;;
11086;SDS011;5597;47.588;9.642;2023-08-01T04:27:33;3.20;;;2.83;;
11086;SDS011;5597;47.588;9.642;2023-08-01T04:29:58;3.60;;;3.30;;
11086;SDS011;5597;47.588;9.642;2023-08-01T04:32:24;3.23;;;2.90;;
11086;SDS011;5597;47.588;9.642;2023-08-01T04:34:49;3.50;;;3.20;;
11086;SDS011;5597;47.588;9.642;2023-08-01T04:37:15;3.10;;;2.80;;
11086;SDS011;5597;47.588;9.642;2023-08-01T04:39:41;3.23;;;2.93;;
11086;SDS011;5597;47.588;9.642;2023-08-01T04:42:06;2.90;;;2.70;;
11086;SDS011;5597;47.588;9.642;2023-08-01T04:44:32;2.77;;;2.57;;
11086;SDS011;5597;47.588;9.642;2023-08-01T04:46:57;3.40;;;2.57;;
11086;SDS011;5597;47.588;9.642;2023-08-01T04:49:23;3.30;;;2.97;;
11086;SDS011;5597;47.588;9.642;2023-08-01T04:51:52;3.40;;;3.10;;
11086;SDS011;5597;47.588;9.642;2023-08-01T04:54:17;3.60;;;3.03;;
11086;SDS011;5597;47.588;9.642;2023-08-01T04:56:43;3.90;;;3.50;;
11086;SDS011;5597;47.588;9.642;2023-08-01T04:59:08;3.90;;;3.47;;
11086;SDS011;5597;47.588;9.642;2023-08-01T05:01:34;3.27;;;2.93;;
11086;SDS011;5597;47.588;9.642;2023-08-01T05:03:59;3.17;;;2.93;;
11086;SDS011;5597;47.588;9.642;2023-08-01T05:06:25;3.53;;;3.23;;
11086;SDS011;5597;47.588;9.642;2023-08-01T05:08:52;3.00;;;2.80;;
11086;SDS011;5597;47.588;9.642;2023-08-01T05:11:18;3.87;;;3.53;;
11086;SDS011;5597;47.588;9.642;2023-08-01T05:13:43;3.50;;;3.20;;
11086;SDS011;5597;47.588;9.642;2023-08-01T05:16:09;4.33;;;3.57;;
11086;SDS011;5597;47.588;9.642;2023-08-01T05:18:34;4.63;;;3.30;;
11086;SDS011;5597;47.588;9.642;2023-08-01T05:21:00;3.87;;;3.50;;
11086;SDS011;5597;47.588;9.642;2023-08-01T05:23:25;5.07;;;3.43;;
11086;SDS011;5597;47.588;9.642;2023-08-01T05:25:51;4.63;;;3.70;;
11086;SDS011;5597;47.588;9.642;2023-08-01T05:28:16;4.37;;;3.60;;
11086;SDS011;5597;47.588;9.642;2023-08-01T05:30:42;3.87;;;3.47;;
11086;SDS011;5597;47.588;9.642;2023-08-01T05:33:08;3.67;;;3.37;;
11086;SDS011;5597;47.588;9.642;2023-08-01T05:35:33;5.10;;;3.03;;
11086;SDS011;5597;47.588;9.642;2023-08-01T05:37:59;4.87;;;3.50;;
11086;SDS011;5597;47.588;9.642;2023-08-01T05:40:25;4.13;;;3.73;;
11086;SDS011;5597;47.588;9.642;2023-08-01T05:42:50;4.93;;;3.47;;
11086;SDS011;5597;47.588;9.642;2023-08-01T05:45:16;4.10;;;3.57;;
11086;SDS011;5597;47.588;9.642;2023-08-01T05:47:41;4.53;;;3.37;;
11086;SDS011;5597;47.588;9.642;2023-08-01T05:50:07;4.20;;;3.40;;
11086;SDS011;5597;47.588;9.642;2023-08-01T05:52:33;5.53;;;3.10;;
11086;SDS011;5597;47.588;9.642;2023-08-01T05:54:59;4.00;;;3.17;;
11086;SDS011;5597;47.588;9.642;2023-08-01T05:57:25;3.13;;;2.77;;
11086;SDS011;5597;47.588;9.642;2023-08-01T05:59:50;3.73;;;3.07;;
11086;SDS011;5597;47.588;9.642;2023-08-01T06:02:16;3.27;;;2.73;;
11086;SDS011;5597;47.588;9.642;2023-08-01T06:04:42;3.10;;;2.77;;
11086;SDS011;5597;47.588;9.642;2023-08-01T06:07:07;4.03;;;2.80;;
11086;SDS011;5597;47.588;9.642;2023-08-01T06:09:33;4.70;;;2.97;;
11086;SDS011;5597;47.588;9.642;2023-08-01T06:11:58;3.27;;;2.80;;
11086;SDS011;5597;47.588;9.642;2023-08-01T06:14:24;3.50;;;3.00;;
11086;SDS011;5597;47.588;9.642;2023-08-01T06:16:50;4.57;;;2.73;;
11086;SDS011;5597;47.588;9.642;2023-08-01T06:19:15;4.07;;;2.90;;
11086;SDS011;5597;47.588;9.642;2023-08-01T06:21:41;4.17;;;2.93;;
11086;SDS011;5597;47.588;9.642;2023-08-01T06:24:06;3.80;;;2.73;;
11086;SDS011;5597;47.588;9.642;2023-08-01T06:26:33;3.53;;;3.23;;
11086;SDS011;5597;47.588;9.642;2023-08-01T06:28:59;4.00;;;2.77;;
11086;SDS011;5597;47.588;9.642;2023-08-01T06:31:24;3.27;;;2.70;;
11086;SDS011;5597;47.588;9.642;2023-08-01T06:33:50;4.10;;;3.20;;
11086;SDS011;5597;47.588;9.642;2023-08-01T06:36:16;3.63;;;2.80;;
11086;SDS011;5597;47.588;9.642;2023-08-01T06:38:42;3.33;;;2.93;;
11086;SDS011;5597;47.588;9.642;2023-08-01T06:41:08;4.57;;;2.80;;
11086;SDS011;5597;47.588;9.642;2023-08-01T06:43:33;4.30;;;3.00;;
11086;SDS011;5597;47.588;9.642;2023-08-01T06:45:59;3.73;;;3.00;;
11086;SDS011;5597;47.588;9.642;2023-08-01T06:48:25;2.83;;;2.60;;
11086;SDS011;5597;47.588;9.642;2023-08-01T06:50:50;4.90;;;2.73;;
11086;SDS011;5597;47.588;9.642;2023-08-01T06:53:16;3.00;;;2.70;;
11086;SDS011;5597;47.588;9.642;2023-08-01T06:55:42;6.53;;;3.37;;
11086;SDS011;5597;47.588;9.642;2023-08-01T06:58:07;4.37;;;3.30;;
11086;SDS011;5597;47.588;9.642;2023-08-01T07:00:33;3.63;;;2.93;;
11086;SDS011;5597;47.588;9.642;2023-08-01T07:02:58;2.97;;;2.67;;
11086;SDS011;5597;47.588;9.642;2023-08-01T07:05:24;3.50;;;2.77;;
11086;SDS011;5597;47.588;9.642;2023-08-01T07:07:49;3.27;;;2.50;;
11086;SDS011;5597;47.588;9.642;2023-08-01T07:10:15;3.47;;;2.50;;
11086;SDS011;5597;47.588;9.642;2023-08-01T07:12:40;3.50;;;3.10;;
11086;SDS011;5597;47.588;9.642;2023-08-01T07:15:06;5.27;;;3.33;;
11086;SDS011;5597;47.588;9.642;2023-08-01T07:17:32;3.80;;;2.80;;
11086;SDS011;5597;47.588;9.642;2023-08-01T07:19:58;3.57;;;2.73;;
11086;SDS011;5597;47.588;9.642;2023-08-01T07:22:23;3.40;;;3.10;;
11086;SDS011;5597;47.588;9.642;2023-08-01T07:24:53;3.10;;;2.80;;
11086;SDS011;5597;47.588;9.642;2023-08-01T07:27:19;3.23;;;2.90;;
11086;SDS011;5597;47.588;9.642;2023-08-01T07:29:44;4.17;;;2.70;;
11086;SDS011;5597;47.588;9.642;2023-08-01T07:32:10;3.10;;;2.80;;
11086;SDS011;5597;47.588;9.642;2023-08-01T07:34:36;3.70;;;3.00;;
11086;SDS011;5597;47.588;9.642;2023-08-01T07:37:01;4.53;;;3.20;;
11086;SDS011;5597;47.588;9.642;2023-08-01T07:39:27;4.57;;;3.27;;
11086;SDS011;5597;47.588;9.642;2023-08-01T07:41:52;3.67;;;3.23;;
11086;SDS011;5597;47.588;9.642;2023-08-01T07:44:20;3.40;;;2.97;;
11086;SDS011;5597;47.588;9.642;2023-08-01T07:46:45;3.17;;;2.50;;
11086;SDS011;5597;47.588;9.642;2023-08-01T07:49:11;3.57;;;2.60;;
11086;SDS011;5597;47.588;9.642;2023-08-01T07:51:36;4.10;;;2.80;;
11086;SDS011;5597;47.588;9.642;2023-08-01T07:54:02;3.77;;;2.73;;
11086;SDS011;5597;47.588;9.642;2023-08-01T07:56:27;3.63;;;2.77;;
11086;SDS011;5597;47.588;9.642;2023-08-01T07:58:53;3.87;;;2.90;;
11086;SDS011;5597;47.588;9.642;2023-08-01T08:01:18;3.20;;;2.90;;
11086;SDS011;5597;47.588;9.642;2023-08-01T08:03:44;2.70;;;2.50;;
11086;SDS011;5597;47.588;9.642;2023-08-01T08:06:09;3.40;;;2.70;;
11086;SDS011;5597;47.588;9.642;2023-08-01T08:08:35;3.30;;;2.83;;
11086;SDS011;5597;47.588;9.642;2023-08-01T08:11:01;3.60;;;3.00;;
11086;SDS011;5597;47.588;9.642;2023-08-01T08:13:27;3.10;;;2.70;;
11086;SDS011;5597;47.588;9.642;2023-08-01T08:15:57;2.73;;;2.23;;
11086;SDS011;5597;47.588;9.642;2023-08-01T08:18:23;3.67;;;2.80;;
11086;SDS011;5597;47.588;9.642;2023-08-01T08:20:49;3.60;;;2.90;;
11086;SDS011;5597;47.588;9.642;2023-08-01T08:23:14;4.17;;;3.00;;
11086;SDS011;5597;47.588;9.642;2023-08-01T08:25:41;4.00;;;2.70;;
11086;SDS011;5597;47.588;9.642;2023-08-01T08:28:09;4.27;;;2.90;;
11086;SDS011;5597;47.588;9.642;2023-08-01T08:30:36;3.50;;;2.93;;
11086;SDS011;5597;47.588;9.642;2023-08-01T08:33:03;4.23;;;3.37;;
11086;SDS011;5597;47.588;9.642;2023-08-01T08:35:30;4.13;;;3.53;;
11086;SDS011;5597;47.588;9.642;2023-08-01T08:37:56;3.83;;;3.43;;
11086;SDS011;5597;47.588;9.642;2023-08-01T08:40:23;4.00;;;3.60;;
11086;SDS011;5597;47.588;9.642;2023-08-01T08:42:52;4.17;;;3.37;;
11086;SDS011;5597;47.588;9.642;2023-08-01T08:45:18;4.00;;;3.30;;
11086;SDS011;5597;47.588;9.642;2023-08-01T08:47:45;3.80;;;3.20;;
11086;SDS011;5597;47.588;9.642;2023-08-01T08:50:19;3.63;;;3.23;;
11086;SDS011;5597;47.588;9.642;2023-08-01T08:52:45;4.30;;;3.30;;
11086;SDS011;5597;47.588;9.642;2023-08-01T08:55:11;3.77;;;3.37;;
11086;SDS011;5597;47.588;9.642;2023-08-01T08:57:37;3.57;;;3.00;;
11086;SDS011;5597;47.588;9.642;2023-08-01T09:00:05;4.03;;;2.90;;
11086;SDS011;5597;47.588;9.642;2023-08-01T09:02:32;5.43;;;3.33;;
11086;SDS011;5597;47.588;9.642;2023-08-01T09:04:58;4.43;;;3.13;;
11086;SDS011;5597;47.588;9.642;2023-08-01T09:07:24;4.17;;;3.23;;
11086;SDS011;5597;47.588;9.642;2023-08-01T09:09:55;4.10;;;3.17;;
11086;SDS011;5597;47.588;9.642;2023-08-01T09:12:21;3.80;;;3.30;;
11086;SDS011;5597;47.588;9.642;2023-08-01T09:14:47;3.70;;;3.30;;
11086;SDS011;5597;47.588;9.642;2023-08-01T09:17:16;7.13;;;3.40;;
11086;SDS011;5597;47.588;9.642;2023-08-01T09:19:43;4.10;;;3.37;;
11086;SDS011;5597;47.588;9.642;2023-08-01T09:22:10;4.37;;;3.30;;
11086;SDS011;5597;47.588;9.642;2023-08-01T09:24:37;3.30;;;3.00;;
11086;SDS011;5597;47.588;9.642;2023-08-01T09:27:02;5.57;;;3.80;;
11086;SDS011;5597;47.588;9.642;2023-08-01T09:29:33;4.60;;;3.57;;
11086;SDS011;5597;47.588;9.642;2023-08-01T09:31:59;5.90;;;4.17;;
11086;SDS011;5597;47.588;9.642;2023-08-01T09:34:26;3.93;;;3.50;;
11086;SDS011;5597;47.588;9.642;2023-08-01T09:36:59;4.30;;;3.47;;
11086;SDS011;5597;47.588;9.642;2023-08-01T09:39:25;4.13;;;3.47;;
11086;SDS011;5597;47.588;9.642;2023-08-01T09:41:55;4.37;;;3.80;;
11086;SDS011;5597;47.588;9.642;2023-08-01T09:44:21;3.80;;;3.40;;
11086;SDS011;5597;47.588;9.642;2023-08-01T09:49:28;4.50;;;3.60;;
11086;SDS011;5597;47.588;9.642;2023-08-01T09:51:55;6.43;;;3.40;;
11086;SDS011;5597;47.588;9.642;2023-08-01T09:54:21;5.20;;;3.60;;
11086;SDS011;5597;47.588;9.642;2023-08-01T09:56:48;4.30;;;3.13;;
11086;SDS011;5597;47.588;9.642;2023-08-01T09:59:20;4.87;;;3.50;;
11086;SDS011;5597;47.588;9.642;2023-08-01T10:01:50;5.90;;;3.60;;
11086;SDS011;5597;47.588;9.642;2023-08-01T10:04:24;4.67;;;3.37;;
11086;SDS011;5597;47.588;9.642;2023-08-01T10:07:00;4.03;;;3.40;;
11086;SDS011;5597;47.588;9.642;2023-08-01T10:09:31;4.67;;;3.27;;
11086;SDS011;5597;47.588;9.642;2023-08-01T10:11:58;4.50;;;3.50;;
11086;SDS011;5597;47.588;9.642;2023-08-01T10:14:25;4.57;;;3.20;;
11086;SDS011;5597;47.588;9.642;2023-08-01T10:16:51;4.40;;;3.40;;
11086;SDS011;5597;47.588;9.642;2023-08-01T10:19:18;5.43;;;3.60;;
11086;SDS011;5597;47.588;9.642;2023-08-01T10:21:44;4.60;;;3.60;;
11086;SDS011;5597;47.588;9.642;2023-08-01T10:24:12;5.10;;;3.57;;
11086;SDS011;5597;47.588;9.642;2023-08-01T10:26:39;4.40;;;3.50;;
11086;SDS011;5597;47.588;9.642;2023-08-01T10:29:05;4.40;;;3.63;;
11086;SDS011;5597;47.588;9.642;2023-08-01T10:31:30;5.57;;;3.83;;
11086;SDS011;5597;47.588;9.642;2023-08-01T10:34:04;5.03;;;3.43;;
11086;SDS011;5597;47.588;9.642;2023-08-01T10:36:37;7.70;;;4.07;;
11086;SDS011;5597;47.588;9.642;2023-08-01T10:39:03;5.70;;;4.83;;
11086;SDS011;5597;47.588;9.642;2023-08-01T10:41:32;6.60;;;3.67;;
11086;SDS011;5597;47.588;9.642;2023-08-01T10:44:09;4.60;;;3.57;;
11086;SDS011;5597;47.588;9.642;2023-08-01T10:49:19;4.00;;;3.60;;
11086;SDS011;5597;47.588;9.642;2023-08-01T10:51:49;4.37;;;3.33;;
11086;SDS011;5597;47.588;9.642;2023-08-01T10:54:24;4.00;;;3.60;;
11086;SDS011;5597;47.588;9.642;2023-08-01T10:56:55;4.87;;;3.63;;
11086;SDS011;5597;47.588;9.642;2023-08-01T10:59:23;3.87;;;3.47;;
11086;SDS011;5597;47.588;9.642;2023-08-01T11:01:50;3.87;;;3.10;;
11086;SDS011;5597;47.588;9.642;2023-08-01T11:04:17;5.20;;;3.40;;
11086;SDS011;5597;47.588;9.642;2023-08-01T11:06:51;3.83;;;3.50;;
11086;SDS011;5597;47.588;9.642;2023-08-01T11:09:21;4.50;;;3.30;;
11086;SDS011;5597;47.588;9.642;2023-08-01T11:11:52;4.63;;;3.13;;
11086;SDS011;5597;47.588;9.642;2023-08-01T11:14:19;4.07;;;3.30;;
11086;SDS011;5597;47.588;9.642;2023-08-01T11:16:47;4.50;;;3.37;;
11086;SDS011;5597;47.588;9.642;2023-08-01T11:19:20;3.73;;;3.30;;
11086;SDS011;5597;47.588;9.642;2023-08-01T11:21:45;4.23;;;3.30;;
11086;SDS011;5597;47.588;9.642;2023-08-01T11:24:11;2.83;;;2.63;;
11086;SDS011;5597;47.588;9.642;2023-08-01T11:26:43;3.43;;;2.50;;
11086;SDS011;5597;47.588;9.642;2023-08-01T11:29:11;2.60;;;2.23;;
11086;SDS011;5597;47.588;9.642;2023-08-01T11:31:37;2.00;;;1.80;;
11086;SDS011;5597;47.588;9.642;2023-08-01T11:34:04;3.00;;;2.70;;
11086;SDS011;5597;47.588;9.642;2023-08-01T11:36:30;2.57;;;2.03;;
11086;SDS011;5597;47.588;9.642;2023-08-01T11:38:56;2.30;;;2.07;;
11086;SDS011;5597;47.588;9.642;2023-08-01T11:41:24;2.87;;;2.47;;
11086;SDS011;5597;47.588;9.642;2023-08-01T11:43:51;3.03;;;2.73;;
11086;SDS011;5597;47.588;9.642;2023-08-01T11:46:17;3.27;;;2.40;;
11086;SDS011;5597;47.588;9.642;2023-08-01T11:48:45;3.20;;;2.43;;
11086;SDS011;5597;47.588;9.642;2023-08-01T11:51:12;3.40;;;2.80;;
11086;SDS011;5597;47.588;9.642;2023-08-01T11:53:38;4.13;;;2.70;;
11086;SDS011;5597;47.588;9.642;2023-08-01T11:56:04;3.53;;;3.07;;
11086;SDS011;5597;47.588;9.642;2023-08-01T12:01:06;3.57;;;2.60;;
11086;SDS011;5597;47.588;9.642;2023-08-01T12:03:42;3.80;;;2.90;;
11086;SDS011;5597;47.588;9.642;2023-08-01T12:06:15;3.77;;;2.77;;
11086;SDS011;5597;47.588;9.642;2023-08-01T12:08:41;3.27;;;2.40;;
11086;SDS011;5597;47.588;9.642;2023-08-01T12:11:27;4.43;;;2.53;;
11086;SDS011;5597;47.588;9.642;2023-08-01T12:16:29;2.93;;;2.63;;
11086;SDS011;5597;47.588;9.642;2023-08-01T12:18:55;3.37;;;2.43;;
11086;SDS011;5597;47.588;9.642;2023-08-01T12:21:22;3.00;;;2.70;;
11086;SDS011;5597;47.588;9.642;2023-08-01T12:23:47;3.50;;;2.50;;
11086;SDS011;5597;47.588;9.642;2023-08-01T12:26:13;5.77;;;2.80;;
11086;SDS011;5597;47.588;9.642;2023-08-01T12:28:38;2.50;;;2.30;;
11086;SDS011;5597;47.588;9.642;2023-08-01T12:31:04;3.50;;;2.63;;
11086;SDS011;5597;47.588;9.642;2023-08-01T12:33:30;3.33;;;2.63;;
11086;SDS011;5597;47.588;9.642;2023-08-01T12:35:57;2.83;;;2.53;;
11086;SDS011;5597;47.588;9.642;2023-08-01T12:38:23;3.50;;;2.70;;
11086;SDS011;5597;47.588;9.642;2023-08-01T12:40:48;2.80;;;2.37;;
11086;SDS011;5597;47.588;9.642;2023-08-01T12:43:14;2.73;;;2.30;;
11086;SDS011;5597;47.588;9.642;2023-08-01T12:45:41;3.43;;;2.60;;
11086;SDS011;5597;47.588;9.642;2023-08-01T12:48:07;2.50;;;2.27;;
11086;SDS011;5597;47.588;9.642;2023-08-01T12:50:32;4.30;;;2.60;;
11086;SDS011;5597;47.588;9.642;2023-08-01T12:52:58;2.97;;;2.67;;
11086;SDS011;5597;47.588;9.642;2023-08-01T12:55:23;3.50;;;2.73;;
11086;SDS011;5597;47.588;9.642;2023-08-01T12:57:49;3.70;;;2.80;;
11086;SDS011;5597;47.588;9.642;2023-08-01T13:00:15;3.07;;;2.63;;
11086;SDS011;5597;47.588;9.642;2023-08-01T13:02:41;3.60;;;2.73;;
11086;SDS011;5597;47.588;9.642;2023-08-01T13:05:06;3.10;;;2.80;;
11086;SDS011;5597;47.588;9.642;2023-08-01T13:07:32;3.20;;;2.90;;
11086;SDS011;5597;47.588;9.642;2023-08-01T13:09:59;3.13;;;2.47;;
11086;SDS011;5597;47.588;9.642;2023-08-01T13:12:25;2.80;;;2.50;;
11086;SDS011;5597;47.588;9.642;2023-08-01T13:14:50;2.90;;;2.60;;
11086;SDS011;5597;47.588;9.642;2023-08-01T13:17:16;2.20;;;2.00;;
11086;SDS011;5597;47.588;9.642;2023-08-01T13:19:41;3.10;;;2.37;;
11086;SDS011;5597;47.588;9.642;2023-08-01T13:22:07;2.23;;;2.03;;
11086;SDS011;5597;47.588;9.642;2023-08-01T13:24:32;2.23;;;2.03;;
11086;SDS011;5597;47.588;9.642;2023-08-01T13:26:58;2.90;;;1.87;;
11086;SDS011;5597;47.588;9.642;2023-08-01T13:29:23;2.10;;;1.90;;
11086;SDS011;5597;47.588;9.642;2023-08-01T13:31:49;2.80;;;2.10;;
11086;SDS011;5597;47.588;9.642;2023-08-01T13:34:15;1.90;;;1.63;;
11086;SDS011;5597;47.588;9.642;2023-08-01T13:36:42;2.20;;;2.00;;
11086;SDS011;5597;47.588;9.642;2023-08-01T13:39:08;2.17;;;2.00;;
11086;SDS011;5597;47.588;9.642;2023-08-01T13:41:33;2.20;;;1.90;;
11086;SDS011;5597;47.588;9.642;2023-08-01T13:43:59;2.60;;;2.30;;
11086;SDS011;5597;47.588;9.642;2023-08-01T13:46:24;2.17;;;1.93;;
11086;SDS011;5597;47.588;9.642;2023-08-01T13:48:50;1.97;;;1.77;;
11086;SDS011;5597;47.588;9.642;2023-08-01T13:51:15;1.90;;;1.70;;
11086;SDS011;5597;47.588;9.642;2023-08-01T13:53:42;2.40;;;1.90;;
11086;SDS011;5597;47.588;9.642;2023-08-01T13:56:08;2.93;;;1.50;;
11086;SDS011;5597;47.588;9.642;2023-08-01T13:58:34;1.83;;;1.40;;
11086;SDS011;5597;47.588;9.642;2023-08-01T14:01:06;1.50;;;1.40;;
11086;SDS011;5597;47.588;9.642;2023-08-01T14:03:37;1.70;;;1.40;;
11086;SDS011;5597;47.588;9.642;2023-08-01T14:06:06;1.67;;;1.50;;
11086;SDS011;5597;47.588;9.642;2023-08-01T14:08:33;1.87;;;1.50;;
11086;SDS011;5597;47.588;9.642;2023-08-01T14:10:59;1.77;;;1.40;;
11086;SDS011;5597;47.588;9.642;2023-08-01T14:13:26;1.70;;;1.40;;
11086;SDS011;5597;47.588;9.642;2023-08-01T14:15:51;2.03;;;1.60;;
11086;SDS011;5597;47.588;9.642;2023-08-01T14:18:17;1.90;;;1.70;;
11086;SDS011;5597;47.588;9.642;2023-08-01T14:20:42;1.90;;;1.70;;
11086;SDS011;5597;47.588;9.642;2023-08-01T14:23:08;2.07;;;1.70;;
11086;SDS011;5597;47.588;9.642;2023-08-01T14:25:34;2.83;;;2.00;;
11086;SDS011;5597;47.588;9.642;2023-08-01T14:27:59;3.53;;;2.00;;
11086;SDS011;5597;47.588;9.642;2023-08-01T14:30:25;2.63;;;2.00;;
11086;SDS011;5597;47.588;9.642;2023-08-01T14:32:58;2.80;;;2.10;;
11086;SDS011;5597;47.588;9.642;2023-08-01T14:35:27;2.00;;;1.70;;
11086;SDS011;5597;47.588;9.642;2023-08-01T14:37:53;2.10;;;1.90;;
11086;SDS011;5597;47.588;9.642;2023-08-01T14:40:20;3.33;;;2.10;;
11086;SDS011;5597;47.588;9.642;2023-08-01T14:42:46;2.30;;;2.00;;
11086;SDS011;5597;47.588;9.642;2023-08-01T14:45:11;2.37;;;1.97;;
11086;SDS011;5597;47.588;9.642;2023-08-01T14:47:37;2.27;;;2.07;;
11086;SDS011;5597;47.588;9.642;2023-08-01T14:50:03;2.30;;;1.87;;
11086;SDS011;5597;47.588;9.642;2023-08-01T14:52:29;2.77;;;2.47;;
11086;SDS011;5597;47.588;9.642;2023-08-01T14:54:55;3.90;;;3.30;;
11086;SDS011;5597;47.588;9.642;2023-08-01T14:57:21;2.03;;;1.77;;
11086;SDS011;5597;47.588;9.642;2023-08-01T14:59:46;2.23;;;1.97;;
11086;SDS011;5597;47.588;9.642;2023-08-01T15:02:12;2.07;;;1.73;;
11086;SDS011;5597;47.588;9.642;2023-08-01T15:04:38;2.63;;;1.80;;
11086;SDS011;5597;47.588;9.642;2023-08-01T15:07:03;2.60;;;2.10;;